Genegantslet, New York
Current Conditions -  °F | °C
As of 12:53 AM on Sunday 26 Oct 2014 (Local Time) from KBGM Reporting Station
Thunderstorm Thunderstorm  
Wind Chill: 41°   Ceiling: 3300
Heat Index: 48°   Visibility: 10mi
Dew Point: 40°   Wind: 21mph
Humidity: 74%   Direction: 340°NNW
Pressure: 29.6"   Gusts: 33mph
Location:  42.3542°N, 75.7469°W
Report Text: KBGM 260453Z AUTO 34018G29KT 10SM VCTS -RA FEW027 BKN033 BKN046 09/04 A2960 RMK AO2 PK WND 34029/0448 LTG DSNT NE AND W RAB50 PRESRR SLP024 P0000 T00890044 401670039
Loading
Personal Weather Stations






























Interactive Weather Map
Tropical Storm Tracking
New forecast layout! Learn more

10-Day Weather Forecast

Advertisements
Track Severe Weather on mobile